Terminal Aerodrome Forecast
Issued by NWS

Home | Current Version | Previous Version | Text Only | Print | Product List | Glossary On
Versions: 1 2 3 4 5 6 7 8 9 10 11 12 13 14 15 16 17 18 19
000
FTUS46 KSGX 211333 AAA
TAFCRQ
TAF AMD
KCRQ 211333Z 2114/2212 20005KT P6SM OVC035
     FM211900 23009KT P6SM SCT030 SCT040
      TEMPO 2122/2202 BKN030
     FM220200 VRB04KT P6SM OVC035=

USA.gov is the U.S. government's official web portal to all federal, state and local government web resources and services.